Terminal Aerodrome Forecast
Issued by NWS Charleston, WV

Current Version | Previous Version | Text Only | Print | Product List | Glossary Off
Versions: 1 2 3 4 5 6 7 8 9 10 11 12 13 14 15 16 17 18 19 20 21 22 23 24

000
FTUS41 KRLX 130906 AAA
TAFBKW
TAF AMD
KBKW 130906Z 1309/1406 33014G23KT 2SM -SN OVC009
     FM131300 33013G20KT P6SM OVC010
     FM131700 33014G22KT P6SM BKN015
     FM140300 33008KT P6SM BKN020=

USA.gov is the U.S. government's official web portal to all federal, state and local government web resources and services.